sensor_id;sensor_type;location;lat;lon;timestamp;temperature;humidity
814;DHT22;389;48.710;9.392;2022-12-29T00:01:43;5.30;99.90
814;DHT22;389;48.710;9.392;2022-12-29T00:04:11;5.30;99.90
814;DHT22;389;48.710;9.392;2022-12-29T00:06:37;5.30;99.90
814;DHT22;389;48.710;9.392;2022-12-29T00:09:03;5.40;99.90
814;DHT22;389;48.710;9.392;2022-12-29T00:11:28;5.40;99.90
814;DHT22;389;48.710;9.392;2022-12-29T00:13:55;5.40;99.90
814;DHT22;389;48.710;9.392;2022-12-29T00:16:44;5.50;99.90
814;DHT22;389;48.710;9.392;2022-12-29T00:19:11;5.50;99.90
814;DHT22;389;48.710;9.392;2022-12-29T00:21:57;5.50;99.90
814;DHT22;389;48.710;9.392;2022-12-29T00:24:43;5.60;99.90
814;DHT22;389;48.710;9.392;2022-12-29T00:27:28;5.60;99.90
814;DHT22;389;48.710;9.392;2022-12-29T00:30:19;5.60;99.90
814;DHT22;389;48.710;9.392;2022-12-29T00:33:18;5.70;99.90
814;DHT22;389;48.710;9.392;2022-12-29T00:39:02;5.70;99.90
814;DHT22;389;48.710;9.392;2022-12-29T00:41:47;5.80;99.90
814;DHT22;389;48.710;9.392;2022-12-29T00:44:32;5.80;99.90
814;DHT22;389;48.710;9.392;2022-12-29T00:46:58;5.80;99.90
814;DHT22;389;48.710;9.392;2022-12-29T00:49:27;5.80;99.90
814;DHT22;389;48.710;9.392;2022-12-29T00:52:02;5.90;99.90
814;DHT22;389;48.710;9.392;2022-12-29T00:54:30;5.90;99.90
814;DHT22;389;48.710;9.392;2022-12-29T00:56:56;6.00;99.90
814;DHT22;389;48.710;9.392;2022-12-29T00:59:22;5.90;99.90
814;DHT22;389;48.710;9.392;2022-12-29T01:01:50;6.00;99.90
814;DHT22;389;48.710;9.392;2022-12-29T01:04:16;6.00;99.90
814;DHT22;389;48.710;9.392;2022-12-29T01:06:41;6.10;99.90
814;DHT22;389;48.710;9.392;2022-12-29T01:09:08;6.10;99.90
814;DHT22;389;48.710;9.392;2022-12-29T01:11:52;6.20;99.90
814;DHT22;389;48.710;9.392;2022-12-29T01:14:19;6.20;99.90
814;DHT22;389;48.710;9.392;2022-12-29T01:16:45;6.20;99.90
814;DHT22;389;48.710;9.392;2022-12-29T01:19:12;6.20;99.90
814;DHT22;389;48.710;9.392;2022-12-29T01:21:37;6.20;99.90
814;DHT22;389;48.710;9.392;2022-12-29T01:24:03;6.30;99.90
814;DHT22;389;48.710;9.392;2022-12-29T01:26:29;6.30;99.90
814;DHT22;389;48.710;9.392;2022-12-29T01:28:54;6.30;99.90
814;DHT22;389;48.710;9.392;2022-12-29T01:31:20;6.40;99.90
814;DHT22;389;48.710;9.392;2022-12-29T01:33:45;6.40;99.90
814;DHT22;389;48.710;9.392;2022-12-29T01:36:13;6.40;99.90
814;DHT22;389;48.710;9.392;2022-12-29T01:38:41;6.40;99.90
814;DHT22;389;48.710;9.392;2022-12-29T01:41:08;6.50;99.90
814;DHT22;389;48.710;9.392;2022-12-29T01:46:32;6.50;99.90
814;DHT22;389;48.710;9.392;2022-12-29T01:51:36;6.60;99.90
814;DHT22;389;48.710;9.392;2022-12-29T01:54:07;6.60;99.90
814;DHT22;389;48.710;9.392;2022-12-29T01:56:33;6.60;99.90
814;DHT22;389;48.710;9.392;2022-12-29T01:59:03;6.70;99.90
814;DHT22;389;48.710;9.392;2022-12-29T02:01:30;6.70;99.90
814;DHT22;389;48.710;9.392;2022-12-29T02:03:56;6.70;99.90
814;DHT22;389;48.710;9.392;2022-12-29T02:06:23;6.80;99.90
814;DHT22;389;48.710;9.392;2022-12-29T02:08:53;6.80;99.90
814;DHT22;389;48.710;9.392;2022-12-29T02:11:21;6.80;99.90
814;DHT22;389;48.710;9.392;2022-12-29T02:13:48;6.80;99.90
814;DHT22;389;48.710;9.392;2022-12-29T02:16:36;6.80;99.90
814;DHT22;389;48.710;9.392;2022-12-29T02:28:33;6.80;99.90
814;DHT22;389;48.710;9.392;2022-12-29T02:37:03;6.80;99.90
814;DHT22;389;48.710;9.392;2022-12-29T02:39:58;6.80;99.90
814;DHT22;389;48.710;9.392;2022-12-29T02:42:45;6.80;99.90
814;DHT22;389;48.710;9.392;2022-12-29T02:50:23;6.80;99.90
814;DHT22;389;48.710;9.392;2022-12-29T02:53:17;6.80;99.90
814;DHT22;389;48.710;9.392;2022-12-29T02:56:04;6.80;99.90
814;DHT22;389;48.710;9.392;2022-12-29T02:58:30;6.80;99.90
814;DHT22;389;48.710;9.392;2022-12-29T03:04:11;6.80;99.90
814;DHT22;389;48.710;9.392;2022-12-29T03:06:56;6.80;99.90
814;DHT22;389;48.710;9.392;2022-12-29T03:12:29;6.80;99.90
814;DHT22;389;48.710;9.392;2022-12-29T03:15:25;6.80;99.90
814;DHT22;389;48.710;9.392;2022-12-29T03:18:29;6.80;99.90
814;DHT22;389;48.710;9.392;2022-12-29T03:21:02;6.80;99.90
814;DHT22;389;48.710;9.392;2022-12-29T03:23:31;6.80;99.90
814;DHT22;389;48.710;9.392;2022-12-29T03:26:01;6.80;99.90
814;DHT22;389;48.710;9.392;2022-12-29T03:28:36;6.80;99.90
814;DHT22;389;48.710;9.392;2022-12-29T03:31:04;6.80;99.90
814;DHT22;389;48.710;9.392;2022-12-29T03:33:32;6.90;99.90
814;DHT22;389;48.710;9.392;2022-12-29T03:36:02;6.90;99.90
814;DHT22;389;48.710;9.392;2022-12-29T03:38:44;7.00;99.90
814;DHT22;389;48.710;9.392;2022-12-29T03:41:14;7.10;99.90
814;DHT22;389;48.710;9.392;2022-12-29T03:43:41;7.30;99.90
814;DHT22;389;48.710;9.392;2022-12-29T03:46:07;7.60;99.90
814;DHT22;389;48.710;9.392;2022-12-29T03:48:32;7.80;99.90
814;DHT22;389;48.710;9.392;2022-12-29T03:50:58;8.10;99.50
814;DHT22;389;48.710;9.392;2022-12-29T03:53:24;8.40;98.90
814;DHT22;389;48.710;9.392;2022-12-29T03:55:49;8.70;98.10
814;DHT22;389;48.710;9.392;2022-12-29T03:58:15;8.90;97.40
814;DHT22;389;48.710;9.392;2022-12-29T04:00:40;9.20;97.00
814;DHT22;389;48.710;9.392;2022-12-29T04:03:06;9.50;96.40
814;DHT22;389;48.710;9.392;2022-12-29T04:05:31;9.80;95.90
814;DHT22;389;48.710;9.392;2022-12-29T04:07:57;10.00;94.90
814;DHT22;389;48.710;9.392;2022-12-29T04:10:22;10.10;94.40
814;DHT22;389;48.710;9.392;2022-12-29T04:12:48;10.30;94.30
814;DHT22;389;48.710;9.392;2022-12-29T04:15:14;10.40;94.00
814;DHT22;389;48.710;9.392;2022-12-29T04:17:39;10.60;93.80
814;DHT22;389;48.710;9.392;2022-12-29T04:20:05;10.50;93.50
814;DHT22;389;48.710;9.392;2022-12-29T04:22:56;10.50;93.30
814;DHT22;389;48.710;9.392;2022-12-29T04:25:22;10.50;93.10
814;DHT22;389;48.710;9.392;2022-12-29T04:27:47;10.50;93.00
814;DHT22;389;48.710;9.392;2022-12-29T04:30:13;10.50;93.00
814;DHT22;389;48.710;9.392;2022-12-29T04:32:38;10.50;92.90
814;DHT22;389;48.710;9.392;2022-12-29T04:35:04;10.50;93.00
814;DHT22;389;48.710;9.392;2022-12-29T04:37:30;10.50;92.90
814;DHT22;389;48.710;9.392;2022-12-29T04:39:56;10.50;93.00
814;DHT22;389;48.710;9.392;2022-12-29T04:42:21;10.40;93.00
814;DHT22;389;48.710;9.392;2022-12-29T04:44:47;10.30;93.00
814;DHT22;389;48.710;9.392;2022-12-29T04:47:13;10.30;93.10
814;DHT22;389;48.710;9.392;2022-12-29T04:49:38;10.30;93.10
814;DHT22;389;48.710;9.392;2022-12-29T04:52:04;10.30;93.20
814;DHT22;389;48.710;9.392;2022-12-29T04:54:29;10.20;93.10
814;DHT22;389;48.710;9.392;2022-12-29T04:56:55;10.20;93.20
814;DHT22;389;48.710;9.392;2022-12-29T04:59:20;10.10;93.20
814;DHT22;389;48.710;9.392;2022-12-29T05:01:46;10.10;93.30
814;DHT22;389;48.710;9.392;2022-12-29T05:04:11;10.00;93.30
814;DHT22;389;48.710;9.392;2022-12-29T05:06:37;10.00;93.30
814;DHT22;389;48.710;9.392;2022-12-29T05:09:03;10.00;93.30
814;DHT22;389;48.710;9.392;2022-12-29T05:11:28;9.90;93.80
814;DHT22;389;48.710;9.392;2022-12-29T05:13:54;9.90;93.80
814;DHT22;389;48.710;9.392;2022-12-29T05:16:19;9.80;93.80
814;DHT22;389;48.710;9.392;2022-12-29T05:18:45;9.80;93.90
814;DHT22;389;48.710;9.392;2022-12-29T05:21:10;9.80;94.20
814;DHT22;389;48.710;9.392;2022-12-29T05:23:36;9.70;93.90
814;DHT22;389;48.710;9.392;2022-12-29T05:26:02;9.70;93.90
814;DHT22;389;48.710;9.392;2022-12-29T05:28:27;9.80;94.00
814;DHT22;389;48.710;9.392;2022-12-29T05:30:54;9.60;94.00
814;DHT22;389;48.710;9.392;2022-12-29T05:33:19;9.60;94.00
814;DHT22;389;48.710;9.392;2022-12-29T05:35:45;9.60;94.10
814;DHT22;389;48.710;9.392;2022-12-29T05:38:10;9.60;94.20
814;DHT22;389;48.710;9.392;2022-12-29T05:40:36;9.60;94.20
814;DHT22;389;48.710;9.392;2022-12-29T05:43:02;9.60;94.20
814;DHT22;389;48.710;9.392;2022-12-29T05:45:27;9.60;94.20
814;DHT22;389;48.710;9.392;2022-12-29T05:47:53;9.60;94.10
814;DHT22;389;48.710;9.392;2022-12-29T05:50:18;9.60;94.10
814;DHT22;389;48.710;9.392;2022-12-29T05:52:44;9.50;94.10
814;DHT22;389;48.710;9.392;2022-12-29T05:55:10;9.40;94.30
814;DHT22;389;48.710;9.392;2022-12-29T05:57:36;9.50;94.50
814;DHT22;389;48.710;9.392;2022-12-29T06:00:03;9.30;94.50
814;DHT22;389;48.710;9.392;2022-12-29T06:02:29;9.30;94.70
814;DHT22;389;48.710;9.392;2022-12-29T06:04:55;9.30;94.80
814;DHT22;389;48.710;9.392;2022-12-29T06:07:20;9.30;94.80
814;DHT22;389;48.710;9.392;2022-12-29T06:09:46;9.40;94.70
814;DHT22;389;48.710;9.392;2022-12-29T06:12:11;9.50;94.70
814;DHT22;389;48.710;9.392;2022-12-29T06:14:37;9.50;94.60
814;DHT22;389;48.710;9.392;2022-12-29T06:17:02;9.60;94.50
814;DHT22;389;48.710;9.392;2022-12-29T06:19:28;9.60;94.40
814;DHT22;389;48.710;9.392;2022-12-29T06:21:53;9.70;94.40
814;DHT22;389;48.710;9.392;2022-12-29T06:24:20;9.80;94.40
814;DHT22;389;48.710;9.392;2022-12-29T06:26:47;10.00;93.80
814;DHT22;389;48.710;9.392;2022-12-29T06:29:12;10.00;93.70
814;DHT22;389;48.710;9.392;2022-12-29T06:31:44;10.00;93.60
814;DHT22;389;48.710;9.392;2022-12-29T06:34:14;10.10;93.60
814;DHT22;389;48.710;9.392;2022-12-29T06:36:40;10.20;93.60
814;DHT22;389;48.710;9.392;2022-12-29T06:39:06;10.30;93.70
814;DHT22;389;48.710;9.392;2022-12-29T06:41:31;10.30;93.40
814;DHT22;389;48.710;9.392;2022-12-29T06:43:57;10.30;93.30
814;DHT22;389;48.710;9.392;2022-12-29T06:46:23;10.40;93.20
814;DHT22;389;48.710;9.392;2022-12-29T06:48:49;10.40;93.00
814;DHT22;389;48.710;9.392;2022-12-29T06:51:14;10.50;93.10
814;DHT22;389;48.710;9.392;2022-12-29T06:53:40;10.50;93.00
814;DHT22;389;48.710;9.392;2022-12-29T06:56:06;10.50;93.00
814;DHT22;389;48.710;9.392;2022-12-29T06:58:31;10.50;93.10
814;DHT22;389;48.710;9.392;2022-12-29T07:00:57;10.60;93.10
814;DHT22;389;48.710;9.392;2022-12-29T07:03:23;10.60;93.10
814;DHT22;389;48.710;9.392;2022-12-29T07:05:48;10.60;93.10
814;DHT22;389;48.710;9.392;2022-12-29T07:08:14;10.60;93.10
814;DHT22;389;48.710;9.392;2022-12-29T07:10:40;10.60;93.20
814;DHT22;389;48.710;9.392;2022-12-29T07:13:05;10.60;93.20
814;DHT22;389;48.710;9.392;2022-12-29T07:15:33;10.70;93.30
814;DHT22;389;48.710;9.392;2022-12-29T07:17:59;10.60;93.40
814;DHT22;389;48.710;9.392;2022-12-29T07:20:24;10.50;93.50
814;DHT22;389;48.710;9.392;2022-12-29T07:22:50;10.50;93.90
814;DHT22;389;48.710;9.392;2022-12-29T07:25:15;10.40;93.70
814;DHT22;389;48.710;9.392;2022-12-29T07:27:41;10.40;93.70
814;DHT22;389;48.710;9.392;2022-12-29T07:30:07;10.30;93.70
814;DHT22;389;48.710;9.392;2022-12-29T07:32:33;10.30;93.90
814;DHT22;389;48.710;9.392;2022-12-29T07:34:59;10.10;94.00
814;DHT22;389;48.710;9.392;2022-12-29T07:37:25;10.10;94.10
814;DHT22;389;48.710;9.392;2022-12-29T07:39:50;9.90;95.10
814;DHT22;389;48.710;9.392;2022-12-29T07:42:16;9.80;95.40
814;DHT22;389;48.710;9.392;2022-12-29T07:44:42;9.60;95.60
814;DHT22;389;48.710;9.392;2022-12-29T07:47:11;9.60;95.70
814;DHT22;389;48.710;9.392;2022-12-29T07:49:37;9.50;95.80
814;DHT22;389;48.710;9.392;2022-12-29T07:52:02;9.30;96.10
814;DHT22;389;48.710;9.392;2022-12-29T07:54:28;9.20;96.10
814;DHT22;389;48.710;9.392;2022-12-29T07:56:54;9.20;96.20
814;DHT22;389;48.710;9.392;2022-12-29T07:59:19;9.10;96.30
814;DHT22;389;48.710;9.392;2022-12-29T08:01:50;9.00;96.50
814;DHT22;389;48.710;9.392;2022-12-29T08:04:15;9.00;96.60
814;DHT22;389;48.710;9.392;2022-12-29T08:06:41;9.00;96.70
814;DHT22;389;48.710;9.392;2022-12-29T08:09:08;9.00;96.80
814;DHT22;389;48.710;9.392;2022-12-29T08:11:33;9.00;96.90
814;DHT22;389;48.710;9.392;2022-12-29T08:13:59;9.10;97.00
814;DHT22;389;48.710;9.392;2022-12-29T08:16:24;9.20;97.20
814;DHT22;389;48.710;9.392;2022-12-29T08:18:50;9.20;97.10
814;DHT22;389;48.710;9.392;2022-12-29T08:21:17;9.30;97.20
814;DHT22;389;48.710;9.392;2022-12-29T08:23:42;9.30;97.20
814;DHT22;389;48.710;9.392;2022-12-29T08:26:08;9.40;97.30
814;DHT22;389;48.710;9.392;2022-12-29T08:28:33;9.50;97.30
814;DHT22;389;48.710;9.392;2022-12-29T08:31:00;9.60;97.30
814;DHT22;389;48.710;9.392;2022-12-29T08:33:26;9.60;97.40
814;DHT22;389;48.710;9.392;2022-12-29T08:35:52;9.70;97.40
814;DHT22;389;48.710;9.392;2022-12-29T08:38:18;9.70;97.30
814;DHT22;389;48.710;9.392;2022-12-29T08:40:44;9.80;97.30
814;DHT22;389;48.710;9.392;2022-12-29T08:43:09;9.90;97.30
814;DHT22;389;48.710;9.392;2022-12-29T08:45:35;9.90;97.30
814;DHT22;389;48.710;9.392;2022-12-29T08:48:01;10.10;96.90
814;DHT22;389;48.710;9.392;2022-12-29T08:50:27;10.00;96.80
814;DHT22;389;48.710;9.392;2022-12-29T08:52:52;10.10;96.90
814;DHT22;389;48.710;9.392;2022-12-29T08:55:18;9.90;97.50
814;DHT22;389;48.710;9.392;2022-12-29T08:57:44;10.20;97.10
814;DHT22;389;48.710;9.392;2022-12-29T09:00:10;10.20;97.10
814;DHT22;389;48.710;9.392;2022-12-29T09:02:36;10.30;97.10
814;DHT22;389;48.710;9.392;2022-12-29T09:05:01;10.30;97.10
814;DHT22;389;48.710;9.392;2022-12-29T09:07:27;10.40;97.50
814;DHT22;389;48.710;9.392;2022-12-29T09:09:53;10.40;97.10
814;DHT22;389;48.710;9.392;2022-12-29T09:12:18;10.50;97.10
814;DHT22;389;48.710;9.392;2022-12-29T09:14:46;10.50;97.20
814;DHT22;389;48.710;9.392;2022-12-29T09:17:11;10.50;97.10
814;DHT22;389;48.710;9.392;2022-12-29T09:19:56;10.50;97.10
814;DHT22;389;48.710;9.392;2022-12-29T09:22:21;10.50;97.10
814;DHT22;389;48.710;9.392;2022-12-29T09:24:47;10.60;97.10
814;DHT22;389;48.710;9.392;2022-12-29T09:27:12;10.60;97.00
814;DHT22;389;48.710;9.392;2022-12-29T09:29:38;10.60;96.90
814;DHT22;389;48.710;9.392;2022-12-29T09:32:03;10.70;96.90
814;DHT22;389;48.710;9.392;2022-12-29T09:34:29;10.70;96.90
814;DHT22;389;48.710;9.392;2022-12-29T09:36:55;10.70;96.90
814;DHT22;389;48.710;9.392;2022-12-29T09:39:21;10.70;96.60
814;DHT22;389;48.710;9.392;2022-12-29T09:47:52;10.90;95.60
814;DHT22;389;48.710;9.392;2022-12-29T09:50:28;11.00;95.00
814;DHT22;389;48.710;9.392;2022-12-29T09:53:01;11.20;94.90
814;DHT22;389;48.710;9.392;2022-12-29T09:55:43;11.40;94.50
814;DHT22;389;48.710;9.392;2022-12-29T10:01:26;11.80;94.10
814;DHT22;389;48.710;9.392;2022-12-29T10:03:55;12.00;94.10
814;DHT22;389;48.710;9.392;2022-12-29T10:06:41;12.20;94.00
814;DHT22;389;48.710;9.392;2022-12-29T10:09:50;12.50;93.80
814;DHT22;389;48.710;9.392;2022-12-29T10:12:23;12.80;93.60
814;DHT22;389;48.710;9.392;2022-12-29T10:20:51;13.50;92.50
814;DHT22;389;48.710;9.392;2022-12-29T10:26:22;13.60;91.60
814;DHT22;389;48.710;9.392;2022-12-29T10:28:55;13.70;91.60
814;DHT22;389;48.710;9.392;2022-12-29T10:31:24;13.80;91.60
814;DHT22;389;48.710;9.392;2022-12-29T10:33:55;13.80;91.50
814;DHT22;389;48.710;9.392;2022-12-29T10:36:38;13.80;91.50
814;DHT22;389;48.710;9.392;2022-12-29T10:39:13;13.90;91.40
814;DHT22;389;48.710;9.392;2022-12-29T10:41:48;14.00;91.40
814;DHT22;389;48.710;9.392;2022-12-29T10:44:16;14.10;91.40
814;DHT22;389;48.710;9.392;2022-12-29T10:46:44;14.20;91.10
814;DHT22;389;48.710;9.392;2022-12-29T10:49:17;14.20;91.10
814;DHT22;389;48.710;9.392;2022-12-29T10:51:45;14.30;91.10
814;DHT22;389;48.710;9.392;2022-12-29T10:54:49;14.40;90.90
814;DHT22;389;48.710;9.392;2022-12-29T10:57:35;14.40;90.70
814;DHT22;389;48.710;9.392;2022-12-29T11:02:58;14.50;90.70
814;DHT22;389;48.710;9.392;2022-12-29T11:05:37;14.50;90.40
814;DHT22;389;48.710;9.392;2022-12-29T11:08:11;14.60;90.50
814;DHT22;389;48.710;9.392;2022-12-29T11:10:42;14.60;90.50
814;DHT22;389;48.710;9.392;2022-12-29T11:13:24;14.50;90.50
814;DHT22;389;48.710;9.392;2022-12-29T11:15:50;14.40;90.50
814;DHT22;389;48.710;9.392;2022-12-29T11:18:31;14.30;90.60
814;DHT22;389;48.710;9.392;2022-12-29T11:21:02;14.40;90.80
814;DHT22;389;48.710;9.392;2022-12-29T11:23:34;14.40;90.80
814;DHT22;389;48.710;9.392;2022-12-29T11:28:43;14.60;90.70
814;DHT22;389;48.710;9.392;2022-12-29T11:31:10;14.70;90.40
814;DHT22;389;48.710;9.392;2022-12-29T11:33:37;14.90;90.40
814;DHT22;389;48.710;9.392;2022-12-29T11:36:21;15.00;90.40
814;DHT22;389;48.710;9.392;2022-12-29T11:38:53;15.10;90.20
814;DHT22;389;48.710;9.392;2022-12-29T11:41:26;15.20;90.20
814;DHT22;389;48.710;9.392;2022-12-29T11:43:57;15.10;90.10
814;DHT22;389;48.710;9.392;2022-12-29T11:46:33;15.10;90.60
814;DHT22;389;48.710;9.392;2022-12-29T11:49:00;15.10;90.40
814;DHT22;389;48.710;9.392;2022-12-29T11:51:46;15.00;90.50
814;DHT22;389;48.710;9.392;2022-12-29T11:54:32;15.00;90.80
814;DHT22;389;48.710;9.392;2022-12-29T11:57:17;14.90;90.80
814;DHT22;389;48.710;9.392;2022-12-29T11:59:52;14.90;91.20
814;DHT22;389;48.710;9.392;2022-12-29T12:02:30;15.00;91.30
814;DHT22;389;48.710;9.392;2022-12-29T12:05:21;15.10;91.40
814;DHT22;389;48.710;9.392;2022-12-29T12:10:55;15.30;91.50
814;DHT22;389;48.710;9.392;2022-12-29T12:16:02;15.40;91.50
814;DHT22;389;48.710;9.392;2022-12-29T12:18:44;15.40;91.50
814;DHT22;389;48.710;9.392;2022-12-29T12:21:23;15.30;91.50
814;DHT22;389;48.710;9.392;2022-12-29T12:24:19;15.20;91.50
814;DHT22;389;48.710;9.392;2022-12-29T12:27:16;15.10;91.60
814;DHT22;389;48.710;9.392;2022-12-29T12:29:56;15.10;91.70
814;DHT22;389;48.710;9.392;2022-12-29T12:32:50;14.90;91.90
814;DHT22;389;48.710;9.392;2022-12-29T12:42:18;14.80;93.10
814;DHT22;389;48.710;9.392;2022-12-29T12:44:56;14.70;93.40
814;DHT22;389;48.710;9.392;2022-12-29T13:03:47;14.50;94.30
814;DHT22;389;48.710;9.392;2022-12-29T13:09:24;14.60;94.30
814;DHT22;389;48.710;9.392;2022-12-29T13:34:15;14.60;93.70
814;DHT22;389;48.710;9.392;2022-12-29T13:36:56;14.50;93.70
814;DHT22;389;48.710;9.392;2022-12-29T13:39:30;14.50;93.80
814;DHT22;389;48.710;9.392;2022-12-29T13:41:57;14.50;94.00
814;DHT22;389;48.710;9.392;2022-12-29T13:44:27;14.40;94.20
814;DHT22;389;48.710;9.392;2022-12-29T13:46:54;14.50;94.30
814;DHT22;389;48.710;9.392;2022-12-29T13:49:23;14.40;94.40
814;DHT22;389;48.710;9.392;2022-12-29T13:51:57;14.30;94.40
814;DHT22;389;48.710;9.392;2022-12-29T13:57:35;14.20;94.60
814;DHT22;389;48.710;9.392;2022-12-29T14:00:15;14.20;94.70
814;DHT22;389;48.710;9.392;2022-12-29T14:03:10;14.20;94.70
814;DHT22;389;48.710;9.392;2022-12-29T14:05:36;14.30;94.90
814;DHT22;389;48.710;9.392;2022-12-29T14:08:05;14.30;94.90
814;DHT22;389;48.710;9.392;2022-12-29T14:10:49;14.40;94.80
814;DHT22;389;48.710;9.392;2022-12-29T14:13:26;14.30;94.40
814;DHT22;389;48.710;9.392;2022-12-29T14:15:54;14.30;94.50
814;DHT22;389;48.710;9.392;2022-12-29T14:18:31;14.40;94.50
814;DHT22;389;48.710;9.392;2022-12-29T14:23:40;14.40;94.20
814;DHT22;389;48.710;9.392;2022-12-29T14:28:35;14.50;94.10
814;DHT22;389;48.710;9.392;2022-12-29T14:31:03;14.40;94.00
814;DHT22;389;48.710;9.392;2022-12-29T14:33:31;14.30;93.90
814;DHT22;389;48.710;9.392;2022-12-29T14:36:21;14.20;93.90
814;DHT22;389;48.710;9.392;2022-12-29T14:38:50;14.20;94.00
814;DHT22;389;48.710;9.392;2022-12-29T14:41:40;14.10;94.00
814;DHT22;389;48.710;9.392;2022-12-29T14:46:47;14.10;94.10
814;DHT22;389;48.710;9.392;2022-12-29T14:49:18;14.00;94.20
814;DHT22;389;48.710;9.392;2022-12-29T14:51:45;13.90;94.20
814;DHT22;389;48.710;9.392;2022-12-29T14:57:07;13.70;94.50
814;DHT22;389;48.710;9.392;2022-12-29T14:59:37;13.60;94.60
814;DHT22;389;48.710;9.392;2022-12-29T15:02:14;13.40;94.50
814;DHT22;389;48.710;9.392;2022-12-29T15:04:41;13.30;94.60
814;DHT22;389;48.710;9.392;2022-12-29T15:07:13;13.20;94.80
814;DHT22;389;48.710;9.392;2022-12-29T15:12:30;12.90;94.90
814;DHT22;389;48.710;9.392;2022-12-29T15:14:58;12.90;95.10
814;DHT22;389;48.710;9.392;2022-12-29T15:17:30;12.70;95.10
814;DHT22;389;48.710;9.392;2022-12-29T15:19:58;12.60;95.20
814;DHT22;389;48.710;9.392;2022-12-29T15:22:25;12.50;95.30
814;DHT22;389;48.710;9.392;2022-12-29T15:24:52;12.30;95.30
814;DHT22;389;48.710;9.392;2022-12-29T15:27:24;12.20;95.70
814;DHT22;389;48.710;9.392;2022-12-29T15:30:03;12.00;95.80
814;DHT22;389;48.710;9.392;2022-12-29T15:32:39;11.90;96.10
814;DHT22;389;48.710;9.392;2022-12-29T15:35:30;11.70;96.10
814;DHT22;389;48.710;9.392;2022-12-29T15:37:57;11.60;96.30
814;DHT22;389;48.710;9.392;2022-12-29T15:40:28;11.50;96.40
814;DHT22;389;48.710;9.392;2022-12-29T15:42:58;11.30;96.70
814;DHT22;389;48.710;9.392;2022-12-29T15:45:33;11.20;97.10
814;DHT22;389;48.710;9.392;2022-12-29T15:47:59;11.10;97.20
814;DHT22;389;48.710;9.392;2022-12-29T15:50:31;11.10;97.50
814;DHT22;389;48.710;9.392;2022-12-29T15:52:58;11.00;97.60
814;DHT22;389;48.710;9.392;2022-12-29T15:55:34;11.00;97.70
814;DHT22;389;48.710;9.392;2022-12-29T15:58:03;11.00;97.80
814;DHT22;389;48.710;9.392;2022-12-29T16:00:31;11.20;98.00
814;DHT22;389;48.710;9.392;2022-12-29T16:03:01;11.10;98.10
814;DHT22;389;48.710;9.392;2022-12-29T16:05:39;11.10;98.10
814;DHT22;389;48.710;9.392;2022-12-29T16:08:32;11.20;98.10
814;DHT22;389;48.710;9.392;2022-12-29T16:11:00;11.20;98.10
814;DHT22;389;48.710;9.392;2022-12-29T16:13:32;11.30;98.00
814;DHT22;389;48.710;9.392;2022-12-29T16:16:06;11.30;98.00
814;DHT22;389;48.710;9.392;2022-12-29T16:18:35;11.40;98.00
814;DHT22;389;48.710;9.392;2022-12-29T16:21:04;11.40;97.90
814;DHT22;389;48.710;9.392;2022-12-29T16:23:31;11.40;97.90
814;DHT22;389;48.710;9.392;2022-12-29T16:25:58;11.50;97.90
814;DHT22;389;48.710;9.392;2022-12-29T16:28:34;11.60;97.90
814;DHT22;389;48.710;9.392;2022-12-29T16:33:50;11.50;97.90
814;DHT22;389;48.710;9.392;2022-12-29T16:50:29;11.50;98.10
814;DHT22;389;48.710;9.392;2022-12-29T16:52:55;11.60;98.20
814;DHT22;389;48.710;9.392;2022-12-29T16:55:21;11.60;98.20
814;DHT22;389;48.710;9.392;2022-12-29T16:57:49;11.70;98.40
814;DHT22;389;48.710;9.392;2022-12-29T17:00:27;11.70;98.70
814;DHT22;389;48.710;9.392;2022-12-29T17:02:57;11.70;98.50
814;DHT22;389;48.710;9.392;2022-12-29T17:05:23;11.70;98.50
814;DHT22;389;48.710;9.392;2022-12-29T17:07:49;11.70;98.50
814;DHT22;389;48.710;9.392;2022-12-29T17:10:16;11.80;98.50
814;DHT22;389;48.710;9.392;2022-12-29T17:12:44;11.80;98.50
814;DHT22;389;48.710;9.392;2022-12-29T17:15:24;11.90;98.60
814;DHT22;389;48.710;9.392;2022-12-29T17:17:53;11.80;98.50
814;DHT22;389;48.710;9.392;2022-12-29T17:20:23;11.80;98.50
814;DHT22;389;48.710;9.392;2022-12-29T17:22:50;11.90;98.50
814;DHT22;389;48.710;9.392;2022-12-29T17:25:21;11.80;98.50
814;DHT22;389;48.710;9.392;2022-12-29T17:27:52;11.90;98.50
814;DHT22;389;48.710;9.392;2022-12-29T17:30:23;11.80;98.50
814;DHT22;389;48.710;9.392;2022-12-29T17:32:57;11.70;98.50
814;DHT22;389;48.710;9.392;2022-12-29T17:35:24;11.70;98.60
814;DHT22;389;48.710;9.392;2022-12-29T17:37:51;11.40;98.50
814;DHT22;389;48.710;9.392;2022-12-29T17:40:19;11.50;98.70
814;DHT22;389;48.710;9.392;2022-12-29T17:42:47;11.60;98.90
814;DHT22;389;48.710;9.392;2022-12-29T17:45:15;11.50;98.90
814;DHT22;389;48.710;9.392;2022-12-29T17:47:41;11.40;99.00
814;DHT22;389;48.710;9.392;2022-12-29T17:50:16;11.40;99.10
814;DHT22;389;48.710;9.392;2022-12-29T17:52:43;11.30;99.10
814;DHT22;389;48.710;9.392;2022-12-29T17:55:18;11.30;99.40
814;DHT22;389;48.710;9.392;2022-12-29T17:57:44;11.30;99.20
814;DHT22;389;48.710;9.392;2022-12-29T18:00:22;11.30;99.50
814;DHT22;389;48.710;9.392;2022-12-29T18:02:49;11.10;99.00
814;DHT22;389;48.710;9.392;2022-12-29T18:05:23;11.30;99.20
814;DHT22;389;48.710;9.392;2022-12-29T18:07:51;11.20;99.20
814;DHT22;389;48.710;9.392;2022-12-29T18:10:17;11.20;99.20
814;DHT22;389;48.710;9.392;2022-12-29T18:12:45;11.20;99.20
814;DHT22;389;48.710;9.392;2022-12-29T18:15:24;11.20;99.20
814;DHT22;389;48.710;9.392;2022-12-29T18:18:11;11.10;99.20
814;DHT22;389;48.710;9.392;2022-12-29T18:20:38;11.10;99.30
814;DHT22;389;48.710;9.392;2022-12-29T18:23:04;11.10;99.30
814;DHT22;389;48.710;9.392;2022-12-29T18:25:35;11.10;99.30
814;DHT22;389;48.710;9.392;2022-12-29T18:28:04;11.10;99.50
814;DHT22;389;48.710;9.392;2022-12-29T18:30:30;11.00;99.60
814;DHT22;389;48.710;9.392;2022-12-29T18:32:55;11.00;99.60
814;DHT22;389;48.710;9.392;2022-12-29T18:35:29;10.90;99.50
814;DHT22;389;48.710;9.392;2022-12-29T18:37:56;11.00;99.80
814;DHT22;389;48.710;9.392;2022-12-29T18:40:22;10.90;99.70
814;DHT22;389;48.710;9.392;2022-12-29T18:42:48;10.90;99.90
814;DHT22;389;48.710;9.392;2022-12-29T18:45:19;10.80;99.90
814;DHT22;389;48.710;9.392;2022-12-29T18:47:45;10.80;99.90
814;DHT22;389;48.710;9.392;2022-12-29T18:50:12;10.80;99.90
814;DHT22;389;48.710;9.392;2022-12-29T18:52:37;10.90;99.90
814;DHT22;389;48.710;9.392;2022-12-29T18:55:03;10.90;99.90
814;DHT22;389;48.710;9.392;2022-12-29T18:57:29;10.90;99.90
814;DHT22;389;48.710;9.392;2022-12-29T18:59:57;10.90;99.90
814;DHT22;389;48.710;9.392;2022-12-29T19:02:23;10.90;99.90
814;DHT22;389;48.710;9.392;2022-12-29T19:04:50;11.00;99.90
814;DHT22;389;48.710;9.392;2022-12-29T19:07:15;10.90;99.90
814;DHT22;389;48.710;9.392;2022-12-29T19:09:41;10.90;99.90
814;DHT22;389;48.710;9.392;2022-12-29T19:12:10;10.90;99.90
814;DHT22;389;48.710;9.392;2022-12-29T19:14:38;10.80;99.90
814;DHT22;389;48.710;9.392;2022-12-29T19:17:03;11.00;99.90
814;DHT22;389;48.710;9.392;2022-12-29T19:19:29;10.90;99.90
814;DHT22;389;48.710;9.392;2022-12-29T19:21:54;10.80;99.90
814;DHT22;389;48.710;9.392;2022-12-29T19:24:22;10.80;99.90
814;DHT22;389;48.710;9.392;2022-12-29T19:26:48;10.80;99.90
814;DHT22;389;48.710;9.392;2022-12-29T19:29:14;10.80;99.90